Time;durP1;ratioP1;P1;durP2;ratioP2;P2;SDS_P1;SDS_P2;PMS_P1;PMS_P2;Temp;Humidity;BMP_temperature;BMP_pressure;BME280_temperature;BME280_humidity;BME280_pressure;Samples;Min_cycle;Max_cycle;Signal;HPM_P1;HPM_P2
2022/06/27 00:02:06;;;;;;;10.27;7.38;;;;;;;23.15;100.00;101225.56;5043597;28;20029;-73
2022/06/27 00:04:52;;;;;;;9.13;7.85;;;;;;;23.00;100.00;101227.38;5058043;28;20346;-74
2022/06/27 00:07:39;;;;;;;9.90;7.57;;;;;;;23.13;100.00;101232.81;5057383;28;20025;-74
2022/06/27 00:10:25;;;;;;;10.38;7.65;;;;;;;22.68;100.00;101223.09;5057864;28;20036;-74
2022/06/27 00:13:11;;;;;;;11.15;8.15;;;;;;;22.94;100.00;101229.53;5057463;28;20107;-74
2022/06/27 00:15:57;;;;;;;9.13;8.23;;;;;;;23.01;100.00;101229.06;5058323;28;20115;-74
2022/06/27 00:18:43;;;;;;;9.70;7.90;;;;;;;22.80;100.00;101226.84;5058081;28;20049;-74
2022/06/27 00:21:29;;;;;;;9.63;8.20;;;;;;;22.47;100.00;101221.66;5043807;28;20025;-74
2022/06/27 00:24:15;;;;;;;10.23;7.65;;;;;;;22.59;100.00;101225.44;5057389;28;20025;-74
2022/06/27 00:27:01;;;;;;;9.75;8.25;;;;;;;22.82;100.00;101224.91;5058159;28;20021;-74
2022/06/27 00:29:47;;;;;;;9.80;8.07;;;;;;;22.80;100.00;101232.19;5057818;28;20086;-73
2022/06/27 00:32:33;;;;;;;10.55;8.27;;;;;;;22.91;100.00;101235.91;5057364;28;20104;-74
2022/06/27 00:35:18;;;;;;;9.52;7.10;;;;;;;22.74;100.00;101227.19;5057500;28;20369;-74
2022/06/27 00:38:04;;;;;;;8.43;7.20;;;;;;;22.70;100.00;101214.94;5058573;28;20029;-74
2022/06/27 00:40:50;;;;;;;9.38;8.18;;;;;;;22.85;100.00;101214.03;5057712;28;20473;-74
2022/06/27 00:43:36;;;;;;;10.27;7.57;;;;;;;22.77;100.00;101213.66;5061176;28;20029;-73
2022/06/27 00:46:21;;;;;;;9.50;6.95;;;;;;;22.91;100.00;101213.69;5066177;28;20051;-74
2022/06/27 00:49:07;;;;;;;10.93;6.70;;;;;;;22.45;100.00;101226.22;5068305;28;20059;-74
2022/06/27 00:51:54;;;;;;;12.05;7.63;;;;;;;22.73;100.00;101230.81;5068685;28;20086;-74
2022/06/27 00:54:42;;;;;;;10.00;7.53;;;;;;;22.45;100.00;101228.88;5079308;28;20025;-73
2022/06/27 00:57:29;;;;;;;9.68;7.30;;;;;;;22.60;100.00;101224.47;5070432;28;20028;-73
2022/06/27 01:00:15;;;;;;;8.38;7.47;;;;;;;22.23;100.00;101227.53;5070041;28;20370;-74
2022/06/27 01:03:00;;;;;;;11.02;7.53;;;;;;;22.30;100.00;101220.91;5070612;28;20079;-73
2022/06/27 01:05:52;;;;;;;8.48;7.25;;;;;;;22.09;100.00;101222.97;5060877;28;20029;-74
2022/06/27 01:08:39;;;;;;;8.85;7.93;;;;;;;22.50;100.00;101228.63;5077547;28;20068;-74
2022/06/27 01:11:25;;;;;;;8.93;7.43;;;;;;;22.09;100.00;101231.00;5073010;28;20021;-74
2022/06/27 01:14:12;;;;;;;9.13;7.82;;;;;;;22.07;100.00;101222.19;5071136;28;20031;-74
2022/06/27 01:16:58;;;;;;;8.32;7.00;;;;;;;22.08;100.00;101225.72;5058047;28;20076;-73
2022/06/27 01:19:44;;;;;;;8.82;7.13;;;;;;;22.12;100.00;101225.47;5065868;28;20052;-74
2022/06/27 01:22:30;;;;;;;9.25;7.50;;;;;;;22.27;100.00;101226.41;5064150;28;20064;-73
2022/06/27 01:25:20;;;;;;;8.57;7.45;;;;;;;22.43;100.00;101224.59;5057384;28;20024;-74
2022/06/27 01:28:08;;;;;;;11.73;7.82;;;;;;;22.43;100.00;101229.91;5055718;28;20378;-74
2022/06/27 01:30:54;;;;;;;10.63;7.63;;;;;;;22.25;100.00;101231.84;5051195;28;20442;-74
2022/06/27 01:33:40;;;;;;;11.05;7.45;;;;;;;22.25;100.00;101234.50;5055197;28;20025;-74
2022/06/27 01:36:44;;;;;;;10.50;7.53;;;;;;;22.03;100.00;101239.31;5055960;28;20089;-74
2022/06/27 01:39:30;;;;;;;9.50;7.45;;;;;;;22.08;100.00;101228.41;5041455;28;20122;-74
2022/06/27 01:42:16;;;;;;;9.95;8.35;;;;;;;22.19;100.00;101237.50;5053937;28;20045;-74
2022/06/27 01:45:03;;;;;;;13.38;7.95;;;;;;;22.29;100.00;101228.03;5056159;28;20024;-74
2022/06/27 01:47:48;;;;;;;8.77;7.80;;;;;;;22.46;100.00;101227.03;5049598;28;20033;-74
2022/06/27 01:50:35;;;;;;;11.35;8.32;;;;;;;22.29;100.00;101230.72;5055009;28;20036;-74
2022/06/27 01:53:21;;;;;;;10.70;9.02;;;;;;;21.91;100.00;101234.69;5055328;28;20061;-74
2022/06/27 01:56:07;;;;;;;9.98;8.18;;;;;;;21.48;100.00;101234.44;5041062;28;20031;-74
2022/06/27 01:58:57;;;;;;;10.63;8.88;;;;;;;21.55;100.00;101239.38;5054668;28;20519;-74
2022/06/27 02:01:44;;;;;;;12.05;10.35;;;;;;;21.46;100.00;101237.16;5054936;28;20029;-74
2022/06/27 02:04:31;;;;;;;11.88;10.05;;;;;;;21.56;100.00;101227.75;5055376;28;20045;-73
2022/06/27 02:07:17;;;;;;;13.85;11.02;;;;;;;21.27;100.00;101238.25;5054581;28;20021;-74
2022/06/27 02:10:03;;;;;;;13.63;10.43;;;;;;;21.75;100.00;101231.16;5055140;28;20035;-73
2022/06/27 02:12:49;;;;;;;13.80;11.38;;;;;;;21.85;100.00;101234.16;5054612;28;20078;-74
2022/06/27 02:15:35;;;;;;;13.27;11.57;;;;;;;21.75;100.00;101230.28;5056038;28;20032;-74
2022/06/27 02:18:21;;;;;;;11.75;10.35;;;;;;;21.78;100.00;101238.97;5055118;28;20037;-74
2022/06/27 02:21:09;;;;;;;14.38;10.57;;;;;;;21.78;100.00;101246.13;5056048;28;20120;-73
2022/06/27 02:23:56;;;;;;;13.30;10.98;;;;;;;21.61;100.00;101249.69;5054192;28;20024;-74
2022/06/27 02:26:42;;;;;;;15.40;10.60;;;;;;;21.75;100.00;101248.97;5054217;28;20147;-74
2022/06/27 02:29:28;;;;;;;16.95;10.90;;;;;;;21.38;100.00;101254.53;5053642;28;20033;-74
2022/06/27 02:32:15;;;;;;;12.25;10.38;;;;;;;21.22;100.00;101256.28;5054157;28;20021;-74
2022/06/27 02:35:00;;;;;;;11.82;10.40;;;;;;;21.37;100.00;101259.00;5054608;28;20060;-73
2022/06/27 02:37:47;;;;;;;11.18;9.55;;;;;;;21.47;100.00;101254.91;5054545;28;20056;-74
2022/06/27 02:40:33;;;;;;;13.45;9.48;;;;;;;21.03;100.00;101252.84;5054653;28;20036;-72
2022/06/27 02:43:20;;;;;;;10.45;9.30;;;;;;;20.60;100.00;101259.47;5041439;28;20035;-74
2022/06/27 02:46:06;;;;;;;12.30;10.00;;;;;;;20.58;100.00;101257.84;5054936;28;20025;-73
2022/06/27 02:48:51;;;;;;;11.85;9.85;;;;;;;20.69;100.00;101261.66;5054471;28;20100;-74
2022/06/27 02:51:42;;;;;;;15.35;10.35;;;;;;;20.70;100.00;101263.38;5055344;28;20025;-74
2022/06/27 02:54:41;;;;;;;14.18;10.63;;;;;;;21.10;100.00;101255.09;5053515;28;20024;-73
2022/06/27 02:57:36;;;;;;;13.52;10.48;;;;;;;20.93;100.00;101257.78;5053676;28;20119;-73
2022/06/27 03:00:23;;;;;;;12.73;9.80;;;;;;;21.06;100.00;101258.88;5053945;28;20450;-74
2022/06/27 03:03:13;;;;;;;13.38;10.20;;;;;;;21.21;100.00;101267.88;5054833;28;20050;-74
2022/06/27 03:06:01;;;;;;;11.55;9.57;;;;;;;21.16;100.00;101268.13;5053652;28;20039;-73
2022/06/27 03:08:48;;;;;;;12.18;10.77;;;;;;;21.27;100.00;101273.78;5054683;28;20071;-74
2022/06/27 03:11:34;;;;;;;11.45;10.25;;;;;;;20.87;100.00;101263.41;5053825;28;20028;-73
2022/06/27 03:14:20;;;;;;;10.38;9.20;;;;;;;21.14;100.00;101275.31;5053904;28;20033;-74
2022/06/27 03:17:06;;;;;;;11.75;9.60;;;;;;;21.07;100.00;101271.28;5055301;28;20029;-73
2022/06/27 03:19:52;;;;;;;14.68;10.88;;;;;;;20.93;100.00;101275.59;5054400;28;20017;-74
2022/06/27 03:22:38;;;;;;;18.42;10.45;;;;;;;20.95;100.00;101282.56;5053973;28;20112;-74
2022/06/27 03:25:24;;;;;;;13.35;10.40;;;;;;;20.67;100.00;101282.22;5056990;28;20025;-74
2022/06/27 03:28:10;;;;;;;14.27;10.13;;;;;;;20.75;100.00;101284.47;5057286;28;20033;-73
2022/06/27 03:30:56;;;;;;;17.00;10.27;;;;;;;20.96;100.00;101286.06;5057074;28;20029;-73
2022/06/27 03:33:42;;;;;;;15.98;10.90;;;;;;;21.08;100.00;101288.13;5057704;28;20033;-74
2022/06/27 03:36:28;;;;;;;12.82;10.68;;;;;;;20.52;100.00;101292.72;5057134;28;20029;-75
2022/06/27 03:39:13;;;;;;;13.35;10.48;;;;;;;20.81;100.00;101287.69;5071300;28;20094;-74
2022/06/27 03:41:59;;;;;;;14.68;10.55;;;;;;;19.98;100.00;101285.59;5056768;28;20091;-74
2022/06/27 03:44:45;;;;;;;15.93;12.00;;;;;;;20.61;100.00;101290.47;5057065;28;20071;-74
2022/06/27 03:47:31;;;;;;;14.50;11.77;;;;;;;20.87;100.00;101294.50;5043192;28;20029;-74
2022/06/27 03:50:18;;;;;;;14.45;10.60;;;;;;;21.04;100.00;101295.41;5070672;28;20357;-75
2022/06/27 03:53:04;;;;;;;17.73;11.30;;;;;;;20.93;100.00;101304.91;5057128;28;20021;-74
2022/06/27 03:55:50;;;;;;;12.85;11.45;;;;;;;20.94;100.00;101312.78;5036964;28;20040;-74
2022/06/27 03:58:35;;;;;;;15.85;10.90;;;;;;;21.09;100.00;101312.03;5057559;28;20115;-73
2022/06/27 04:01:21;;;;;;;14.85;10.88;;;;;;;21.26;100.00;101313.84;5069747;28;20033;-74
2022/06/27 04:04:07;;;;;;;13.00;10.23;;;;;;;21.18;100.00;101314.22;5042686;28;20368;-73
2022/06/27 04:06:53;;;;;;;17.38;11.50;;;;;;;21.44;100.00;101313.72;5056487;28;20029;-73
2022/06/27 04:09:38;;;;;;;16.98;11.70;;;;;;;21.20;100.00;101312.34;5056884;28;20108;-74
2022/06/27 04:12:24;;;;;;;12.20;10.82;;;;;;;21.49;100.00;101316.13;5069735;28;20035;-73
2022/06/27 04:15:11;;;;;;;12.25;10.95;;;;;;;20.87;100.00;101322.03;5056191;28;20078;-73
2022/06/27 04:17:57;;;;;;;20.60;11.25;;;;;;;21.12;100.00;101311.88;5056584;28;20033;-73
2022/06/27 04:20:42;;;;;;;15.63;11.32;;;;;;;21.16;100.00;101316.09;5056547;28;20107;-74
2022/06/27 04:23:28;;;;;;;15.55;11.50;;;;;;;21.22;100.00;101322.94;5057084;28;20057;-74
2022/06/27 04:26:14;;;;;;;15.52;11.68;;;;;;;21.73;100.00;101321.06;5056305;28;20048;-74
2022/06/27 04:29:00;;;;;;;12.63;10.50;;;;;;;21.34;100.00;101328.47;5042719;28;20116;-73
2022/06/27 04:31:46;;;;;;;13.63;10.85;;;;;;;21.55;100.00;101327.38;5056741;28;20028;-74
2022/06/27 04:34:32;;;;;;;13.30;10.73;;;;;;;21.84;100.00;101333.81;5055705;28;20036;-74
2022/06/27 04:37:18;;;;;;;14.55;11.38;;;;;;;21.40;100.00;101327.28;5055664;28;20048;-73
2022/06/27 04:40:04;;;;;;;14.55;11.55;;;;;;;22.08;100.00;101335.16;5056388;28;20094;-74
2022/06/27 04:42:51;;;;;;;16.48;10.77;;;;;;;22.11;100.00;101335.84;5056286;28;20044;-73
2022/06/27 04:45:37;;;;;;;17.08;10.00;;;;;;;22.20;100.00;101339.81;5056448;28;20036;-74
2022/06/27 04:48:26;;;;;;;16.67;11.10;;;;;;;21.64;100.00;101337.53;5056112;28;20040;-74
2022/06/27 04:51:13;;;;;;;14.80;11.73;;;;;;;21.58;100.00;101335.19;5069903;28;20127;-75
2022/06/27 04:53:59;;;;;;;13.18;10.10;;;;;;;21.64;100.00;101339.34;5055856;28;20032;-77
2022/06/27 04:56:45;;;;;;;13.38;10.50;;;;;;;21.77;100.00;101343.09;5055705;28;20358;-76
2022/06/27 04:59:31;;;;;;;13.73;10.50;;;;;;;21.54;100.00;101338.13;5056842;28;20032;-75
2022/06/27 05:02:18;;;;;;;15.07;9.80;;;;;;;21.49;100.00;101342.78;5055485;28;20445;-76
2022/06/27 05:05:04;;;;;;;11.80;9.85;;;;;;;22.06;100.00;101337.91;5056741;28;20028;-75
2022/06/27 05:07:51;;;;;;;14.75;11.18;;;;;;;22.40;100.00;101340.44;5055444;28;20025;-75
2022/06/27 05:10:37;;;;;;;16.20;10.93;;;;;;;22.41;100.00;101333.28;5056735;28;20037;-76
2022/06/27 05:13:23;;;;;;;13.18;10.93;;;;;;;22.57;100.00;101343.06;5054635;28;20024;-76
2022/06/27 05:16:09;;;;;;;12.32;10.25;;;;;;;22.42;100.00;101341.22;5056143;28;20029;-77
2022/06/27 05:18:55;;;;;;;13.25;9.98;;;;;;;22.59;100.00;101341.13;5056086;28;20106;-76
2022/06/27 05:21:41;;;;;;;12.35;10.52;;;;;;;23.10;100.00;101348.81;5041923;28;20080;-75
2022/06/27 05:24:27;;;;;;;10.82;9.07;;;;;;;22.87;100.00;101351.13;5056315;28;20028;-77
2022/06/27 05:27:13;;;;;;;10.85;8.20;;;;;;;23.02;100.00;101347.53;5059626;28;20346;-78
2022/06/27 05:29:59;;;;;;;13.48;9.00;;;;;;;23.12;100.00;101348.72;5057813;28;20464;-79
2022/06/27 05:32:44;;;;;;;13.90;9.10;;;;;;;23.60;100.00;101344.94;5042626;28;20048;-76
2022/06/27 05:35:30;;;;;;;10.63;8.45;;;;;;;23.62;100.00;101351.91;5057799;28;20021;-77
2022/06/27 05:38:16;;;;;;;9.50;7.47;;;;;;;23.11;100.00;101353.22;5056193;28;20021;-77
2022/06/27 05:41:02;;;;;;;12.55;8.27;;;;;;;23.19;100.00;101356.28;5056199;28;20144;-79
2022/06/27 05:43:48;;;;;;;13.27;9.40;;;;;;;23.17;100.00;101360.88;5042144;28;20033;-75
2022/06/27 05:46:34;;;;;;;10.43;8.73;;;;;;;23.30;100.00;101356.56;5055481;28;20365;-77
2022/06/27 05:49:21;;;;;;;12.48;8.25;;;;;;;23.04;100.00;101354.53;5055161;28;20029;-77
2022/06/27 05:52:06;;;;;;;13.23;8.68;;;;;;;23.31;100.00;101352.06;5056990;28;20029;-77
2022/06/27 05:54:52;;;;;;;8.95;7.60;;;;;;;23.44;100.00;101345.88;5056349;28;20037;-79
2022/06/27 05:57:38;;;;;;;8.50;7.35;;;;;;;23.43;100.00;101349.50;5058270;28;20395;-77
2022/06/27 06:00:25;;;;;;;17.00;7.95;;;;;;;23.25;100.00;101347.06;5055963;28;20028;-75
2022/06/27 06:03:10;;;;;;;9.88;7.25;;;;;;;23.45;100.00;101349.41;5055022;28;20021;-73
2022/06/27 06:05:57;;;;;;;9.57;7.57;;;;;;;24.02;100.00;101355.72;5055255;28;20036;-73
2022/06/27 06:08:43;;;;;;;9.45;7.47;;;;;;;24.05;100.00;101359.06;5055191;28;20048;-74
2022/06/27 06:11:30;;;;;;;10.25;7.40;;;;;;;24.22;100.00;101366.88;5049607;28;20029;-73
2022/06/27 06:14:19;;;;;;;7.88;7.07;;;;;;;24.29;100.00;101357.50;5045398;28;20043;-73
2022/06/27 06:17:05;;;;;;;9.25;7.35;;;;;;;24.37;100.00;101368.59;5045619;28;20033;-72
2022/06/27 06:19:51;;;;;;;15.35;7.60;;;;;;;24.35;100.00;101362.44;5049607;28;20118;-72
2022/06/27 06:22:38;;;;;;;9.98;8.00;;;;;;;24.53;100.00;101360.41;5048306;28;20091;-72
2022/06/27 06:25:24;;;;;;;9.07;6.57;;;;;;;24.07;100.00;101361.63;5045742;28;20033;-71
2022/06/27 06:28:10;;;;;;;8.68;7.78;;;;;;;24.45;100.00;101354.69;5045185;28;20033;-71
2022/06/27 06:30:56;;;;;;;9.90;7.55;;;;;;;24.68;100.00;101356.78;5033462;28;20033;-74
2022/06/27 06:33:42;;;;;;;11.10;6.80;;;;;;;24.96;100.00;101359.34;5050984;28;20051;-73
2022/06/27 06:36:29;;;;;;;8.18;6.68;;;;;;;24.71;100.00;101356.59;5050091;28;20778;-71
2022/06/27 06:39:15;;;;;;;11.65;7.45;;;;;;;24.82;100.00;101356.72;5050964;28;20048;-73
2022/06/27 06:42:02;;;;;;;11.48;7.18;;;;;;;24.99;100.00;101361.84;5049164;28;20056;-73
2022/06/27 06:44:48;;;;;;;8.32;6.47;;;;;;;24.96;100.00;101364.72;5051600;28;20092;-73
2022/06/27 06:47:45;;;;;;;8.63;6.68;;;;;;;25.05;100.00;101358.72;5051558;28;20025;-72
2022/06/27 06:50:30;;;;;;;8.90;6.13;;;;;;;24.95;100.00;101354.97;5052991;28;20033;-75
2022/06/27 06:53:17;;;;;;;9.65;5.53;;;;;;;25.37;100.00;101355.63;5053390;28;20036;-73
2022/06/27 06:56:05;;;;;;;7.65;5.55;;;;;;;25.75;100.00;101363.69;5053815;28;20036;-73
2022/06/27 06:58:50;;;;;;;9.18;4.63;;;;;;;25.62;100.00;101357.47;5057517;28;20449;-74
2022/06/27 07:01:37;;;;;;;8.48;4.32;;;;;;;25.75;100.00;101355.63;5060741;28;20044;-72
2022/06/27 07:04:23;;;;;;;8.77;4.60;;;;;;;25.90;100.00;101365.31;5056717;28;20481;-72
2022/06/27 07:07:09;;;;;;;5.00;4.50;;;;;;;26.25;100.00;101358.31;5056699;28;20554;-73
2022/06/27 07:09:55;;;;;;;8.98;4.78;;;;;;;26.54;100.00;101360.59;5056831;28;20036;-73
2022/06/27 07:12:41;;;;;;;8.32;4.85;;;;;;;25.83;100.00;101362.19;5056429;28;20071;-73
2022/06/27 07:15:28;;;;;;;11.57;5.10;;;;;;;26.12;100.00;101360.16;5048041;28;20029;-73
2022/06/27 07:18:14;;;;;;;10.48;5.15;;;;;;;26.52;100.00;101364.38;5053534;28;20140;-73
2022/06/27 07:21:00;;;;;;;7.93;5.60;;;;;;;26.48;100.00;101361.03;5053498;28;20031;-73
2022/06/27 07:23:48;;;;;;;7.15;5.30;;;;;;;26.42;100.00;101355.25;5050839;28;20037;-74
2022/06/27 07:26:34;;;;;;;8.50;5.47;;;;;;;27.34;100.00;101351.88;5052590;28;20048;-72
2022/06/27 07:29:20;;;;;;;8.32;5.38;;;;;;;26.86;100.00;101360.94;5055044;28;20037;-74
2022/06/27 07:32:09;;;;;;;8.20;5.93;;;;;;;26.85;100.00;101359.22;5052207;28;20021;-74
2022/06/27 07:34:55;;;;;;;13.07;6.15;;;;;;;27.13;100.00;101358.88;5050194;28;20025;-74
2022/06/27 07:37:49;;;;;;;10.02;5.25;;;;;;;27.34;100.00;101359.94;5051617;28;20041;-73
2022/06/27 07:40:36;;;;;;;11.95;5.35;;;;;;;27.22;100.00;101356.38;5037219;28;20449;-74
2022/06/27 07:43:22;;;;;;;8.38;4.97;;;;;;;27.48;100.00;101356.19;5037007;28;20041;-72
2022/06/27 07:46:08;;;;;;;10.57;5.80;;;;;;;28.17;100.00;101351.53;5052051;28;20060;-73
2022/06/27 07:48:54;;;;;;;11.15;5.43;;;;;;;28.50;100.00;101361.44;5062136;28;20068;-71
2022/06/27 07:51:39;;;;;;;6.53;5.18;;;;;;;27.94;100.00;101363.28;5047007;28;20029;-74
2022/06/27 07:54:27;;;;;;;5.68;4.32;;;;;;;27.99;100.00;101357.50;5054269;28;20033;-75
2022/06/27 07:57:17;;;;;;;7.53;4.90;;;;;;;28.34;100.00;101355.53;5052094;28;20040;-75
2022/06/27 08:00:04;;;;;;;5.75;4.75;;;;;;;28.33;100.00;101351.97;5055675;28;20048;-75
2022/06/27 08:02:50;;;;;;;6.10;5.15;;;;;;;28.56;100.00;101356.38;5061559;28;20044;-76
2022/06/27 08:05:36;;;;;;;7.90;4.30;;;;;;;28.85;100.00;101348.59;5055924;28;20025;-75
2022/06/27 08:08:24;;;;;;;7.85;5.00;;;;;;;29.09;100.00;101350.13;5060388;28;20043;-76
2022/06/27 08:11:14;;;;;;;12.23;4.90;;;;;;;28.77;100.00;101349.22;5053024;28;20581;-76
2022/06/27 08:14:05;;;;;;;10.68;5.30;;;;;;;29.12;100.00;101343.59;5058700;28;20092;-76
2022/06/27 08:16:52;;;;;;;12.50;5.05;;;;;;;29.32;100.00;101346.31;5050170;28;20037;-76
2022/06/27 08:19:38;;;;;;;10.82;5.10;;;;;;;29.20;100.00;101341.09;5054566;28;20029;-76
2022/06/27 08:22:25;;;;;;;7.30;5.13;;;;;;;29.34;98.88;101338.09;5061294;28;20362;-75
2022/06/27 08:25:11;;;;;;;9.43;4.70;;;;;;;29.43;100.00;101338.16;5056077;28;20060;-76
2022/06/27 08:27:57;;;;;;;8.52;5.22;;;;;;;29.73;98.42;101332.81;5049285;28;20430;-77
2022/06/27 08:30:44;;;;;;;9.23;4.82;;;;;;;29.32;97.10;101334.66;5051598;28;20025;-77
2022/06/27 08:33:31;;;;;;;7.60;4.75;;;;;;;29.77;96.31;101331.56;5037186;28;20454;-75
2022/06/27 08:36:18;;;;;;;5.65;4.47;;;;;;;29.98;92.76;101332.38;5049075;28;20037;-76
2022/06/27 08:39:07;;;;;;;4.75;4.30;;;;;;;30.53;89.69;101339.13;5049236;28;20033;-76
2022/06/27 08:41:53;;;;;;;6.47;4.38;;;;;;;30.39;89.14;101337.72;5027055;28;20087;-76
2022/06/27 08:44:40;;;;;;;6.35;4.40;;;;;;;30.27;89.81;101338.81;5018007;28;20036;-70
2022/06/27 08:47:27;;;;;;;5.60;4.32;;;;;;;31.11;86.29;101338.25;5020278;28;20059;-76
2022/06/27 08:50:17;;;;;;;8.63;4.07;;;;;;;31.22;85.13;101329.97;5030609;28;20057;-76
2022/06/27 08:53:04;;;;;;;14.73;11.60;;;;;;;31.81;80.31;101333.31;5028435;28;20104;-76
2022/06/27 08:55:50;;;;;;;6.40;4.28;;;;;;;30.88;85.19;101337.66;5023469;28;20037;-76
2022/06/27 08:58:37;;;;;;;8.30;4.30;;;;;;;31.00;84.20;101339.25;5035685;28;20033;-75
2022/06/27 09:01:26;;;;;;;4.22;3.72;;;;;;;31.36;82.75;101334.97;5038134;28;20045;-77
2022/06/27 09:04:13;;;;;;;5.88;3.70;;;;;;;30.86;81.25;101338.81;5038901;28;20556;-75
2022/06/27 09:06:59;;;;;;;5.05;3.50;;;;;;;31.46;74.52;101324.13;5022858;28;20516;-77
2022/06/27 09:09:44;;;;;;;4.10;3.50;;;;;;;31.54;72.61;101324.25;5041838;28;20026;-76
2022/06/27 09:12:30;;;;;;;3.88;3.13;;;;;;;31.66;70.67;101328.50;5036253;28;20025;-75
2022/06/27 09:15:16;;;;;;;4.18;3.10;;;;;;;31.62;68.23;101317.06;5016378;28;20469;-76
2022/06/27 09:18:05;;;;;;;5.80;3.83;;;;;;;31.79;68.61;101319.09;5036981;28;20104;-76
2022/06/27 09:20:58;;;;;;;5.22;3.80;;;;;;;31.75;68.58;101316.75;5046901;28;20037;-76
2022/06/27 09:24:01;;;;;;;4.13;3.70;;;;;;;31.60;76.18;101318.22;5030610;28;20045;-76
2022/06/27 09:26:47;;;;;;;5.55;3.80;;;;;;;31.20;71.70;101315.72;5036608;28;20442;-76
2022/06/27 09:29:33;;;;;;;7.93;4.20;;;;;;;30.80;76.59;101321.28;5030713;28;20053;-76
2022/06/27 09:32:25;;;;;;;5.45;4.40;;;;;;;30.11;80.13;101314.09;5028669;28;20029;-76
2022/06/27 09:35:36;;;;;;;4.93;4.00;;;;;;;30.94;76.75;101320.00;5027768;28;20040;-75
2022/06/27 09:38:22;;;;;;;4.90;3.90;;;;;;;31.32;73.71;101309.19;5021265;28;20036;-76
2022/06/27 09:41:10;;;;;;;5.55;3.78;;;;;;;31.27;74.49;101308.75;5019422;28;20053;-77
2022/06/27 09:44:10;;;;;;;6.57;3.83;;;;;;;31.45;74.67;101304.28;5044934;28;20040;-77
2022/06/27 09:47:08;;;;;;;4.38;3.90;;;;;;;31.15;76.17;101297.19;5047944;28;20041;-77
2022/06/27 09:49:59;;;;;;;5.97;4.13;;;;;;;31.34;77.35;101296.34;5047607;28;20098;-77
2022/06/27 09:52:45;;;;;;;9.73;4.18;;;;;;;31.11;77.00;101303.88;5034597;28;20072;-77
2022/06/27 09:55:32;;;;;;;5.57;3.85;;;;;;;30.59;80.39;101309.69;5046394;28;20111;-77
2022/06/27 09:58:19;;;;;;;7.13;4.20;;;;;;;30.64;81.34;101298.44;5047577;28;20036;-76
2022/06/27 10:01:05;;;;;;;8.18;4.40;;;;;;;31.15;78.40;101290.94;5048214;28;20029;-77
2022/06/27 10:03:52;;;;;;;6.10;4.07;;;;;;;31.30;77.17;101292.22;5046527;28;20045;-76
2022/06/27 10:06:43;;;;;;;6.13;4.18;;;;;;;31.00;77.69;101295.94;5031564;28;20097;-77
2022/06/27 10:09:30;;;;;;;6.93;4.15;;;;;;;31.27;76.79;101295.22;5048162;28;20044;-73
2022/06/27 10:12:31;;;;;;;6.97;4.07;;;;;;;31.72;72.42;101289.94;5046728;28;20075;-74
2022/06/27 10:15:17;;;;;;;6.95;3.90;;;;;;;31.19;74.85;101292.34;5030163;28;20040;-73
2022/06/27 10:18:03;;;;;;;5.50;3.95;;;;;;;31.56;72.28;101289.72;5033163;28;20025;-73
2022/06/27 10:20:51;;;;;;;5.53;4.43;;;;;;;31.18;76.19;101287.94;5046126;28;20056;-73
2022/06/27 10:23:41;;;;;;;5.65;4.00;;;;;;;31.19;73.72;101289.63;5047193;28;20025;-73
2022/06/27 10:26:42;;;;;;;6.60;4.28;;;;;;;31.21;75.16;101279.50;5032391;28;20029;-72
2022/06/27 10:29:33;;;;;;;4.47;3.63;;;;;;;31.17;69.07;101286.22;5048204;28;20109;-68
2022/06/27 10:32:41;;;;;;;9.80;4.60;;;;;;;30.90;72.94;101269.88;5045334;28;20021;-70
2022/06/27 10:35:30;;;;;;;5.55;3.70;;;;;;;31.19;72.56;101268.81;5043573;28;20568;-71
2022/06/27 10:38:24;;;;;;;8.93;4.00;;;;;;;30.78;75.18;101255.59;5046825;28;20036;-71
2022/06/27 10:41:31;;;;;;;6.30;4.60;;;;;;;31.16;77.37;101265.56;5045978;28;20045;-72
2022/06/27 10:44:30;;;;;;;7.93;4.25;;;;;;;30.95;77.87;101259.47;5038004;28;20067;-73
2022/06/27 10:47:33;;;;;;;5.45;4.40;;;;;;;31.48;75.28;101257.09;5041602;28;20426;-74
2022/06/27 10:50:23;;;;;;;7.97;3.80;;;;;;;31.43;72.27;101246.72;5046187;28;20040;-75
2022/06/27 10:53:18;;;;;;;7.10;3.80;;;;;;;31.37;73.37;101247.28;5045238;28;20032;-74
2022/06/27 10:56:36;;;;;;;4.47;3.45;;;;;;;31.38;69.81;101243.59;5046660;28;20518;-73
2022/06/27 10:59:21;;;;;;;8.30;3.63;;;;;;;31.60;69.76;101245.06;5039942;28;20363;-73
2022/06/27 11:02:09;;;;;;;4.80;3.40;;;;;;;31.35;70.34;101233.88;5048136;28;20029;-73
2022/06/27 11:04:56;;;;;;;9.38;3.38;;;;;;;30.86;65.57;101230.56;5048209;28;20058;-74
2022/06/27 11:07:42;;;;;;;5.80;3.45;;;;;;;31.41;65.95;101227.03;5017985;28;20071;-74
2022/06/27 11:10:29;;;;;;;10.38;3.95;;;;;;;31.61;69.08;101222.41;5046217;28;20032;-73
2022/06/27 11:13:58;;;;;;;3.65;3.28;;;;;;;31.98;67.21;101231.38;5048505;28;20095;-73
2022/06/27 11:16:44;;;;;;;6.25;3.70;;;;;;;31.64;69.07;101222.09;4967929;28;20035;-73
2022/06/27 11:22:34;;;;;;;11.45;3.28;;;;;;;32.25;63.31;101218.63;5046849;28;20028;-73
2022/06/27 11:25:20;;;;;;;4.82;3.17;;;;;;;31.87;59.52;101215.31;5045640;28;20044;-73
2022/06/27 11:34:18;;;;;;;6.93;3.25;;;;;;;32.13;58.54;101202.72;5047204;28;20028;-72
2022/06/27 11:37:17;;;;;;;5.32;3.15;;;;;;;32.37;58.94;101205.72;5046878;28;20067;-71
2022/06/27 11:40:06;;;;;;;7.82;3.45;;;;;;;33.35;54.88;101213.56;5048316;28;20036;-72
2022/06/27 11:42:52;;;;;;;3.42;2.90;;;;;;;32.87;54.18;101206.91;5047821;28;20087;-72
2022/06/27 11:45:42;;;;;;;4.30;2.72;;;;;;;32.88;52.91;101204.03;5046663;28;20058;-70
2022/06/27 11:48:28;;;;;;;5.70;2.67;;;;;;;33.10;53.71;101203.50;5049400;28;20048;-70
2022/06/27 11:51:44;;;;;;;3.20;2.83;;;;;;;33.29;51.17;101207.88;5049165;28;20032;-71
2022/06/27 11:54:42;;;;;;;6.28;2.65;;;;;;;32.87;52.27;101198.78;5032790;28;20017;-72
2022/06/27 11:57:32;;;;;;;5.45;2.80;;;;;;;31.88;54.07;101198.03;5050145;28;20041;-73
2022/06/27 12:00:26;;;;;;;4.82;3.00;;;;;;;32.69;53.68;101190.63;5047775;28;20413;-72
2022/06/27 12:03:12;;;;;;;3.40;2.97;;;;;;;32.89;54.47;101188.59;5048591;28;20024;-72
2022/06/27 12:06:14;;;;;;;4.50;3.33;;;;;;;32.97;53.41;101196.78;5046889;28;20047;-71
2022/06/27 12:09:03;;;;;;;7.55;3.05;;;;;;;33.04;53.35;101187.00;5048750;28;20033;-72
2022/06/27 12:12:02;;;;;;;5.43;3.05;;;;;;;31.33;57.68;101185.44;5048832;28;20033;-74
2022/06/27 12:14:49;;;;;;;10.07;2.80;;;;;;;31.72;58.07;101179.69;5034787;28;20040;-71
2022/06/27 12:17:39;;;;;;;5.15;2.85;;;;;;;32.76;53.21;101179.97;5036473;28;20108;-72
2022/06/27 12:20:27;;;;;;;7.88;2.70;;;;;;;31.68;56.73;101186.44;5034929;28;20025;-71
2022/06/27 12:23:13;;;;;;;5.50;3.00;;;;;;;32.12;55.29;101177.50;5035514;28;20021;-73
2022/06/27 12:25:58;;;;;;;5.25;2.63;;;;;;;31.81;56.14;101178.81;5034814;28;20041;-72
2022/06/27 12:28:44;;;;;;;4.90;2.72;;;;;;;31.98;56.42;101179.88;5035259;28;20063;-71
2022/06/27 12:31:31;;;;;;;8.07;3.05;;;;;;;32.71;53.58;101182.31;5038218;28;20072;-72
2022/06/27 12:34:17;;;;;;;4.97;2.90;;;;;;;32.53;55.66;101178.75;5037538;28;20041;-71
2022/06/27 12:37:03;;;;;;;3.60;2.90;;;;;;;32.25;54.42;101185.22;5036328;28;20108;-72
2022/06/27 12:39:49;;;;;;;4.68;2.88;;;;;;;31.99;54.75;101190.56;5035937;28;20068;-72
2022/06/27 12:42:35;;;;;;;6.00;2.80;;;;;;;32.04;55.02;101176.53;5035213;28;20363;-72
2022/06/27 12:45:20;;;;;;;4.07;3.00;;;;;;;31.54;58.37;101180.66;5036595;28;20061;-72
2022/06/27 12:48:09;;;;;;;8.90;3.03;;;;;;;31.74;57.12;101174.97;5037190;28;20061;-72
2022/06/27 12:50:54;;;;;;;5.45;3.85;;;;;;;32.44;55.33;101167.00;5036345;28;20029;-72
2022/06/27 12:53:40;;;;;;;4.88;2.90;;;;;;;32.79;54.19;101158.78;5036356;28;20477;-72
2022/06/27 12:56:26;;;;;;;5.40;2.80;;;;;;;32.55;52.94;101161.34;5036341;28;20040;-71
2022/06/27 12:59:12;;;;;;;6.70;2.75;;;;;;;32.61;50.30;101171.53;5036668;28;20043;-72